createdAt,value
2023-01-19T02:43:01.510Z,14.70
2023-01-19T02:45:28.930Z,14.20
2023-01-19T02:47:56.085Z,15.90
2023-01-19T02:50:50.157Z,11.30
2023-01-19T02:53:25.940Z,13.10
2023-01-19T02:56:23.581Z,11.90
2023-01-19T02:59:16.022Z,13.90
2023-01-19T03:02:02.158Z,16.70
2023-01-19T03:04:52.410Z,14.00
2023-01-19T03:07:44.655Z,16.20
2023-01-19T03:10:17.945Z,13.30
2023-01-19T03:12:47.143Z,17.80
2023-01-19T03:15:27.657Z,12.60
2023-01-19T03:17:54.962Z,12.10
2023-01-19T03:20:24.885Z,15.60
2023-01-19T03:22:54.512Z,15.80
2023-01-19T03:25:21.898Z,18.00
2023-01-19T03:27:49.099Z,12.30
2023-01-19T03:30:19.837Z,13.20
2023-01-19T03:32:55.592Z,13.10
2023-01-19T03:35:23.535Z,14.00
2023-01-19T03:37:51.264Z,18.30
2023-01-19T03:40:18.383Z,14.20
2023-01-19T03:42:45.739Z,15.90
2023-01-19T03:45:12.893Z,17.20
2023-01-19T03:47:40.061Z,15.00
2023-01-19T03:50:09.463Z,10.50
2023-01-19T03:52:36.611Z,13.20
2023-01-19T03:55:04.915Z,14.20
2023-01-19T03:57:32.338Z,15.50
2023-01-19T03:59:59.383Z,11.40
2023-01-19T04:02:26.919Z,15.00
2023-01-19T04:04:54.097Z,13.50
2023-01-19T04:07:21.249Z,14.90
2023-01-19T04:09:48.397Z,14.70
2023-01-19T04:12:15.958Z,12.10
2023-01-19T04:14:43.108Z,14.00
2023-01-19T04:17:10.667Z,12.60
2023-01-19T04:19:38.030Z,16.90
2023-01-19T04:22:05.172Z,15.50
2023-01-19T04:24:32.332Z,16.60
2023-01-19T04:26:59.686Z,12.80
2023-01-19T04:29:26.833Z,12.30
2023-01-19T04:31:53.982Z,12.50
2023-01-19T04:34:21.027Z,12.70
2023-01-19T04:36:51.358Z,15.70
2023-01-19T04:39:18.511Z,16.10
2023-01-19T04:41:45.653Z,15.10
2023-01-19T04:44:12.805Z,14.60
2023-01-19T04:46:39.900Z,18.00
2023-01-19T04:49:07.111Z,14.30
2023-01-19T04:51:34.669Z,14.20
2023-01-19T04:54:02.665Z,13.30
2023-01-19T04:56:29.889Z,16.50
2023-01-19T04:58:56.944Z,16.10
2023-01-19T05:01:24.466Z,17.00
2023-01-19T05:03:51.649Z,15.80
2023-01-19T05:06:18.902Z,20.10
2023-01-19T05:08:46.055Z,20.90
2023-01-19T05:11:13.513Z,22.50
2023-01-19T05:13:40.669Z,17.00
2023-01-19T05:16:08.546Z,15.60
2023-01-19T05:18:37.347Z,17.60
2023-01-19T05:21:04.814Z,20.80
2023-01-19T05:23:32.969Z,16.70
2023-01-19T05:26:03.497Z,14.80
2023-01-19T05:28:31.357Z,14.30
2023-01-19T05:30:58.673Z,16.50
2023-01-19T05:33:26.387Z,18.80
2023-01-19T05:35:53.943Z,16.40
2023-01-19T05:38:34.393Z,15.90
2023-01-19T05:41:02.792Z,17.30
2023-01-19T05:43:29.937Z,16.30
2023-01-19T05:45:57.086Z,16.90
2023-01-19T05:48:24.243Z,17.30
2023-01-19T05:50:51.605Z,12.10
2023-01-19T05:53:18.747Z,14.90
2023-01-19T05:55:45.905Z,17.50
2023-01-19T05:58:13.063Z,14.70
2023-01-19T06:00:40.515Z,13.40
2023-01-19T06:03:07.902Z,12.50
2023-01-19T06:05:35.841Z,16.70
2023-01-19T06:08:03.005Z,15.10
2023-01-19T06:10:30.143Z,13.40
2023-01-19T06:12:57.300Z,15.00
2023-01-19T06:15:24.448Z,19.70
2023-01-19T06:17:51.606Z,21.80
2023-01-19T06:20:18.859Z,20.00
2023-01-19T06:22:46.010Z,17.00
2023-01-19T06:25:13.258Z,20.10
2023-01-19T06:27:44.001Z,17.70
2023-01-19T06:30:12.331Z,19.50
2023-01-19T06:32:39.433Z,14.50
2023-01-19T06:35:08.223Z,15.90
2023-01-19T06:37:35.780Z,13.50
2023-01-19T06:40:03.037Z,16.00
2023-01-19T06:42:30.200Z,19.30
2023-01-19T06:44:57.349Z,15.30
2023-01-19T06:47:24.492Z,15.10
2023-01-19T06:49:51.648Z,22.50
2023-01-19T06:52:20.231Z,18.40
2023-01-19T06:54:47.404Z,19.50
2023-01-19T06:57:14.740Z,18.20
2023-01-19T06:59:41.887Z,20.40
2023-01-19T07:02:26.269Z,16.60
2023-01-19T07:04:56.478Z,16.00
2023-01-19T07:07:23.622Z,17.40
2023-01-19T07:09:53.673Z,19.60
2023-01-19T07:12:22.125Z,18.70
2023-01-19T07:14:49.851Z,17.40
2023-01-19T07:17:17.061Z,16.50
2023-01-19T07:19:44.193Z,17.10
2023-01-19T07:22:11.345Z,18.70
2023-01-19T07:24:38.498Z,19.90
2023-01-19T07:27:05.851Z,18.00
2023-01-19T07:29:33.005Z,19.10
2023-01-19T07:32:00.153Z,21.40
2023-01-19T07:34:27.306Z,29.20
2023-01-19T07:36:56.120Z,21.00
2023-01-19T07:39:23.246Z,19.30
2023-01-19T07:41:50.300Z,18.80
2023-01-19T07:44:17.446Z,18.00
2023-01-19T07:46:44.597Z,16.90
2023-01-19T07:49:12.983Z,17.10
2023-01-19T07:51:40.924Z,19.70
2023-01-19T07:54:08.813Z,17.30
2023-01-19T07:56:36.177Z,16.70
2023-01-19T07:59:03.541Z,15.30
2023-01-19T08:01:31.714Z,19.00
2023-01-19T08:03:59.214Z,15.30
2023-01-19T08:06:36.366Z,13.70
2023-01-19T08:09:08.622Z,17.40
2023-01-19T08:11:37.818Z,15.60
2023-01-19T08:14:07.744Z,14.60
2023-01-19T08:16:36.193Z,13.00
2023-01-19T08:19:03.989Z,14.20
2023-01-19T08:21:31.544Z,16.00
2023-01-19T08:23:58.718Z,14.10
2023-01-19T08:26:30.727Z,14.30
2023-01-19T08:28:58.969Z,14.00
2023-01-19T08:31:26.492Z,12.10
2023-01-19T08:33:53.851Z,17.70
2023-01-19T08:36:21.823Z,15.80
2023-01-19T08:38:49.183Z,18.20
2023-01-19T08:41:19.304Z,19.00
2023-01-19T08:46:17.751Z,19.00
2023-01-19T08:48:51.132Z,15.30
2023-01-19T08:51:18.665Z,16.70
2023-01-19T08:53:45.805Z,12.50
2023-01-19T08:56:14.051Z,9.00
2023-01-19T08:58:46.742Z,5.00
2023-01-19T09:01:20.695Z,5.50
2023-01-19T09:03:48.334Z,10.70
2023-01-19T09:06:17.356Z,6.70
2023-01-19T09:08:44.579Z,7.20
2023-01-19T09:11:12.800Z,10.70
2023-01-19T09:13:40.299Z,9.80
2023-01-19T09:16:08.343Z,8.10
2023-01-19T09:18:35.950Z,6.10
2023-01-19T09:21:04.168Z,6.90
2023-01-19T09:23:31.374Z,8.60
2023-01-19T09:26:00.044Z,9.30
2023-01-19T09:28:27.524Z,6.40
2023-01-19T09:30:54.873Z,7.50
2023-01-19T09:33:23.446Z,8.60
2023-01-19T09:35:52.145Z,9.30
2023-01-19T09:38:20.025Z,7.70
2023-01-19T09:40:54.911Z,8.10
2023-01-19T09:43:28.138Z,6.80
2023-01-19T09:45:57.237Z,9.20
2023-01-19T09:48:34.534Z,7.70
2023-01-19T09:51:03.420Z,7.40
2023-01-19T09:53:52.620Z,10.20
2023-01-19T09:56:20.610Z,10.10
2023-01-19T09:58:49.252Z,12.00
2023-01-19T10:01:25.474Z,9.90
2023-01-19T14:38:34.490Z,23.40
2023-01-19T14:41:01.625Z,27.70
2023-01-19T14:43:30.105Z,29.40
2023-01-19T14:45:58.185Z,32.40
2023-01-19T14:48:29.536Z,36.80
2023-01-19T14:51:04.083Z,30.50
2023-01-19T14:53:36.867Z,29.20
2023-01-19T14:56:05.323Z,28.80
2023-01-19T14:58:35.647Z,31.70
2023-01-19T15:01:03.224Z,30.40
2023-01-19T15:03:44.644Z,36.30
2023-01-19T15:06:20.102Z,41.60
2023-01-19T15:08:48.962Z,37.40
2023-01-19T15:11:25.196Z,31.90
2023-01-19T15:13:52.393Z,28.30
2023-01-19T15:16:19.541Z,29.10
2023-01-19T15:18:46.655Z,36.90
2023-01-19T15:21:20.278Z,33.80
2023-01-19T15:23:47.919Z,35.40
2023-01-19T15:26:19.912Z,34.30
2023-01-19T15:28:49.082Z,36.60
2023-01-19T15:31:17.630Z,31.80
2023-01-19T15:33:44.926Z,33.30
2023-01-19T15:36:18.258Z,41.70
2023-01-19T15:38:46.600Z,35.50
2023-01-19T15:41:24.926Z,37.40
2023-01-19T15:43:52.272Z,43.80
2023-01-19T15:46:20.977Z,37.10
2023-01-19T15:48:48.968Z,42.90
2023-01-19T15:51:17.573Z,35.80
2023-01-19T15:53:45.070Z,34.40
2023-01-19T15:56:16.731Z,36.50
2023-01-19T15:58:43.979Z,38.90
2023-01-19T16:01:15.449Z,31.90
2023-01-19T16:03:42.993Z,40.90
2023-01-19T16:06:10.354Z,40.60
2023-01-19T16:08:37.709Z,35.30
2023-01-19T16:11:12.454Z,38.00
2023-01-19T16:13:40.006Z,31.90
2023-01-19T16:16:09.201Z,45.60
2023-01-19T16:18:36.558Z,33.80
2023-01-19T16:21:03.815Z,34.10
2023-01-19T16:23:30.847Z,47.00
2023-01-19T16:26:05.028Z,41.20
2023-01-19T16:28:32.230Z,38.90
2023-01-19T16:30:59.385Z,37.50
2023-01-19T16:33:26.536Z,35.70
2023-01-19T16:35:53.687Z,36.20
2023-01-19T16:38:22.794Z,41.50
2023-01-19T16:40:49.936Z,36.90
2023-01-19T16:43:18.521Z,46.40
2023-01-19T16:45:56.254Z,42.80
2023-01-19T16:48:23.382Z,36.00
2023-01-19T16:51:04.681Z,34.30
2023-01-19T16:53:32.667Z,35.40
2023-01-19T16:56:06.645Z,34.40
2023-01-19T16:58:33.991Z,34.70
2023-01-19T17:01:01.183Z,35.70
2023-01-19T17:03:28.395Z,41.00
2023-01-19T17:05:55.556Z,28.70
2023-01-19T17:08:23.123Z,35.10
2023-01-19T17:10:50.257Z,30.00
2023-01-19T17:13:17.411Z,41.20
2023-01-19T17:15:44.564Z,38.20
2023-01-19T17:18:11.817Z,33.70
2023-01-19T17:20:38.886Z,32.40
2023-01-19T17:23:06.020Z,33.00
2023-01-19T17:25:33.167Z,36.50
2023-01-19T17:28:01.553Z,26.90
2023-01-19T17:30:29.002Z,29.50
2023-01-19T17:32:56.265Z,33.30
2023-01-19T17:35:23.419Z,36.20
2023-01-19T17:37:54.666Z,29.90
2023-01-19T17:40:21.811Z,31.90
2023-01-19T17:42:49.066Z,33.80
2023-01-19T17:45:16.219Z,36.30
2023-01-19T17:47:43.375Z,30.30
2023-01-19T17:50:11.543Z,31.20
2023-01-19T17:52:38.799Z,32.00
2023-01-19T17:55:06.585Z,30.50
2023-01-19T17:57:33.826Z,30.90
2023-01-19T18:00:00.912Z,24.80
2023-01-19T22:32:13.904Z,29.10
2023-01-19T22:34:41.059Z,32.60
2023-01-19T22:37:08.205Z,28.90
2023-01-19T22:39:35.565Z,32.20
2023-01-19T22:42:02.643Z,36.90
2023-01-19T22:44:29.765Z,30.80
2023-01-19T22:46:56.912Z,33.00
2023-01-19T22:49:24.064Z,32.10
2023-01-19T22:51:51.216Z,34.30
2023-01-19T22:54:18.367Z,40.50
2023-01-19T22:56:46.137Z,41.40
2023-01-19T22:59:13.392Z,36.10
2023-01-19T23:01:42.439Z,34.00
2023-01-19T23:04:12.858Z,32.50
2023-01-19T23:06:39.967Z,34.50
2023-01-19T23:09:10.392Z,41.60
2023-01-19T23:11:39.230Z,39.10
2023-01-19T23:14:11.669Z,43.80
2023-01-19T23:16:38.813Z,35.40
2023-01-19T23:19:05.965Z,35.00
2023-01-19T23:21:33.421Z,36.70
2023-01-19T23:24:01.641Z,31.50
2023-01-19T23:26:29.153Z,36.00
2023-01-19T23:28:57.793Z,41.10
2023-01-19T23:31:29.050Z,39.40
2023-01-19T23:33:57.806Z,31.90
2023-01-19T23:36:26.575Z,31.30
2023-01-19T23:38:58.139Z,41.10
2023-01-19T23:41:25.701Z,36.70
2023-01-19T23:43:52.838Z,46.60
2023-01-19T23:46:20.485Z,42.30
2023-01-19T23:48:47.661Z,35.80
2023-01-19T23:51:18.902Z,41.00
2023-01-19T23:53:46.063Z,41.10
2023-01-19T23:56:18.815Z,42.00
2023-01-19T23:58:47.008Z,40.40
